Time;durP1;ratioP1;P1;durP2;ratioP2;P2;SDS_P1;SDS_P2;PMS_P1;PMS_P2;Temp;Humidity;BMP_temperature;BMP_pressure;BME280_temperature;BME280_humidity;BME280_pressure;Samples;Min_cycle;Max_cycle;Signal;HPM_P1;HPM_P2
2024/01/19 00:00:01;;;;;;;800.58;738.28;;;0.30;99.90;;;;;;4983829;28;20076;-87
2024/01/19 00:02:27;;;;;;;844.97;776.60;;;-0.40;99.90;;;;;;4982804;28;20107;-85
2024/01/19 00:04:52;;;;;;;800.55;738.63;;;1.00;99.90;;;;;;4999979;28;20049;-84
2024/01/19 00:07:19;;;;;;;841.00;774.00;;;0.60;99.90;;;;;;4997631;28;20084;-84
2024/01/19 00:09:47;;;;;;;897.10;822.38;;;0.90;99.90;;;;;;4982604;28;20433;-85
2024/01/19 00:12:13;;;;;;;857.08;787.60;;;-0.10;99.90;;;;;;4966858;28;20051;-85
2024/01/19 00:14:39;;;;;;;863.50;794.35;;;-0.50;99.90;;;;;;4983568;28;20050;-85
2024/01/19 00:17:05;;;;;;;885.00;811.63;;;0.80;99.90;;;;;;4999924;28;20042;-84
2024/01/19 00:19:33;;;;;;;949.03;866.22;;;0.00;99.90;;;;;;4982621;28;20057;-85
2024/01/19 00:21:58;;;;;;;955.63;870.85;;;0.80;99.90;;;;;;4986535;28;20069;-83
2024/01/19 00:24:24;;;;;;;1055.35;947.58;;;0.50;99.90;;;;;;5031043;28;20050;-84
2024/01/19 00:26:50;;;;;;;955.95;872.35;;;-0.20;99.90;;;;;;4986749;28;20122;-84
2024/01/19 00:29:17;;;;;;;925.55;847.60;;;1.00;99.90;;;;;;4970724;28;20042;-84
2024/01/19 00:31:45;;;;;;;959.63;872.53;;;0.00;99.90;;;;;;4986530;28;20049;-85
2024/01/19 00:34:13;;;;;;;969.90;882.47;;;1.00;99.90;;;;;;5023757;28;20036;-84
2024/01/19 00:36:38;;;;;;;951.50;866.78;;;0.00;99.90;;;;;;4998671;28;20490;-85
2024/01/19 00:39:04;;;;;;;949.50;863.55;;;0.10;99.90;;;;;;4985634;28;20038;-84
2024/01/19 00:41:30;;;;;;;987.15;897.63;;;0.90;99.90;;;;;;5002821;28;20482;-85
2024/01/19 00:43:57;;;;;;;957.28;872.65;;;1.00;99.90;;;;;;4986961;28;20729;-85
2024/01/19 00:46:23;;;;;;;940.53;856.80;;;1.30;99.90;;;;;;4970495;28;20050;-84
2024/01/19 00:48:49;;;;;;;959.75;874.17;;;1.60;99.90;;;;;;4987199;28;20488;-84
2024/01/19 00:51:15;;;;;;;930.63;851.63;;;0.20;99.90;;;;;;4995403;28;20042;-83
2024/01/19 00:53:41;;;;;;;1056.75;950.28;;;1.00;99.90;;;;;;4985480;28;20052;-84
2024/01/19 00:56:08;;;;;;;1049.20;944.75;;;0.50;99.90;;;;;;4987065;28;20042;-84
2024/01/19 00:58:34;;;;;;;1023.15;921.08;;;0.20;99.90;;;;;;4985288;28;20080;-84
2024/01/19 01:01:00;;;;;;;1081.78;973.70;;;0.60;99.90;;;;;;5019405;28;20121;-84
2024/01/19 01:03:29;;;;;;;1066.07;958.20;;;1.60;99.90;;;;;;4987737;28;20042;-84
2024/01/19 01:05:56;;;;;;;928.65;849.97;;;1.20;99.90;;;;;;4979244;28;20068;-85
2024/01/19 01:08:24;;;;;;;957.95;873.67;;;0.20;99.90;;;;;;5004632;28;20645;-85
2024/01/19 01:10:49;;;;;;;895.00;821.05;;;0.90;99.90;;;;;;4989200;28;20724;-84
2024/01/19 01:13:15;;;;;;;753.95;696.75;;;1.10;99.90;;;;;;4988342;28;20133;-84
2024/01/19 01:15:41;;;;;;;730.75;675.88;;;1.00;99.90;;;;;;4996200;28;20060;-84
2024/01/19 01:18:07;;;;;;;698.75;645.58;;;1.50;99.90;;;;;;5037782;28;20046;-84
2024/01/19 01:20:32;;;;;;;775.15;714.97;;;1.20;99.90;;;;;;5004946;28;20046;-84
2024/01/19 01:22:58;;;;;;;738.47;681.67;;;0.10;99.90;;;;;;5003680;28;20057;-84
2024/01/19 01:25:24;;;;;;;833.20;766.35;;;1.20;99.90;;;;;;5021923;28;20042;-83
2024/01/19 01:27:50;;;;;;;780.15;720.33;;;0.10;99.90;;;;;;5020137;28;20046;-83
2024/01/19 01:30:17;;;;;;;850.33;781.65;;;0.70;99.90;;;;;;4999488;28;20099;-83
2024/01/19 01:32:42;;;;;;;886.92;812.65;;;-0.10;99.90;;;;;;5018460;28;20050;-83
2024/01/19 01:35:08;;;;;;;842.45;773.97;;;1.10;99.90;;;;;;4995923;28;20051;-83
2024/01/19 01:37:34;;;;;;;866.28;795.90;;;1.00;99.90;;;;;;5014797;28;20139;-83
2024/01/19 01:40:00;;;;;;;839.55;773.35;;;-0.20;99.90;;;;;;4984969;28;20043;-84
2024/01/19 01:42:25;;;;;;;832.78;766.75;;;0.70;99.90;;;;;;5017542;28;20050;-84
2024/01/19 01:44:51;;;;;;;949.10;865.30;;;0.30;99.90;;;;;;5002191;28;20038;-84
2024/01/19 01:47:17;;;;;;;875.60;803.53;;;0.50;99.90;;;;;;4997467;28;20114;-84
2024/01/19 01:49:43;;;;;;;919.30;843.35;;;0.70;99.90;;;;;;5001819;28;20111;-83
2024/01/19 01:52:09;;;;;;;901.78;827.45;;;0.10;99.90;;;;;;4988104;28;20729;-83
2024/01/19 01:54:35;;;;;;;871.35;798.95;;;-0.60;99.90;;;;;;4967591;28;20100;-82
2024/01/19 01:57:02;;;;;;;862.22;792.78;;;0.20;99.90;;;;;;5018707;28;20038;-84
2024/01/19 01:59:29;;;;;;;912.28;836.25;;;-0.70;99.90;;;;;;4987741;28;20141;-84
2024/01/19 02:01:56;;;;;;;966.17;882.70;;;-0.70;99.90;;;;;;4987003;28;20038;-83
2024/01/19 02:04:23;;;;;;;1007.17;911.00;;;0.50;99.90;;;;;;4968481;28;20069;-83
2024/01/19 02:06:48;;;;;;;1036.68;938.90;;;-0.80;99.90;;;;;;4969144;28;20042;-84
2024/01/19 02:09:14;;;;;;;1080.05;970.55;;;0.10;99.90;;;;;;4963995;28;20047;-84
2024/01/19 02:11:40;;;;;;;1050.20;949.10;;;0.30;99.90;;;;;;4997589;28;20048;-84
2024/01/19 02:14:06;;;;;;;1033.47;934.50;;;0.60;99.90;;;;;;5001913;28;20065;-85
2024/01/19 02:16:33;;;;;;;1051.55;949.55;;;0.50;99.90;;;;;;4967734;28;20081;-84
2024/01/19 02:18:58;;;;;;;1091.68;982.05;;;0.90;99.90;;;;;;4975022;28;20038;-84
2024/01/19 02:21:24;;;;;;;1216.72;999.90;;;0.90;99.90;;;;;;5011946;28;20115;-84
2024/01/19 02:23:58;;;;;;;1085.72;975.80;;;0.60;99.90;;;;;;4983678;28;20050;-84
2024/01/19 02:26:24;;;;;;;1256.70;999.90;;;0.90;99.90;;;;;;4976501;28;20125;-84
2024/01/19 02:28:51;;;;;;;1219.65;999.90;;;-0.20;99.90;;;;;;4987740;28;20142;-84
2024/01/19 02:31:17;;;;;;;1146.40;999.90;;;-0.10;99.90;;;;;;4986334;28;20054;-83
2024/01/19 02:33:43;;;;;;;1119.25;998.15;;;-0.10;99.90;;;;;;5003489;28;20049;-83
2024/01/19 02:36:08;;;;;;;1062.43;959.00;;;0.60;99.90;;;;;;5030014;28;20049;-83
2024/01/19 02:38:34;;;;;;;1084.78;978.10;;;1.10;99.90;;;;;;5000897;28;20489;-83
2024/01/19 02:41:00;;;;;;;1114.25;998.00;;;-0.10;99.90;;;;;;5020132;28;20106;-83
2024/01/19 02:43:25;;;;;;;1037.88;940.63;;;0.30;99.90;;;;;;5018267;28;20038;-83
2024/01/19 02:45:51;;;;;;;1001.97;911.60;;;0.10;99.90;;;;;;5036180;28;20096;-83
2024/01/19 02:48:17;;;;;;;1032.75;935.42;;;0.50;99.90;;;;;;5012632;28;20495;-83
2024/01/19 02:50:43;;;;;;;1109.50;994.30;;;0.40;99.90;;;;;;4981854;28;20057;-83
2024/01/19 02:53:08;;;;;;;1033.97;935.03;;;-0.60;99.90;;;;;;4983421;28;20142;-83
2024/01/19 02:55:34;;;;;;;988.03;900.22;;;-0.40;99.90;;;;;;5018023;28;20045;-82
2024/01/19 02:58:00;;;;;;;1012.28;921.65;;;0.70;99.90;;;;;;5019261;28;20053;-83
2024/01/19 03:00:26;;;;;;;1020.22;926.40;;;0.10;99.90;;;;;;5014701;28;20065;-83
2024/01/19 03:02:51;;;;;;;1004.83;913.40;;;-0.10;99.90;;;;;;4968331;28;20050;-83
2024/01/19 03:05:17;;;;;;;965.67;881.65;;;0.40;99.90;;;;;;5028523;28;20441;-83
2024/01/19 03:07:43;;;;;;;1001.38;910.25;;;0.20;99.90;;;;;;4990316;28;20038;-83
2024/01/19 03:10:09;;;;;;;1001.00;908.08;;;0.30;99.90;;;;;;5034125;28;20056;-83
2024/01/19 03:12:34;;;;;;;949.08;866.05;;;-1.10;99.90;;;;;;4969424;28;20057;-83
2024/01/19 03:15:00;;;;;;;972.58;887.85;;;0.20;99.90;;;;;;4984088;28;20444;-84
2024/01/19 03:17:27;;;;;;;985.67;897.08;;;0.00;99.90;;;;;;4983860;28;20074;-83
2024/01/19 03:19:53;;;;;;;1003.15;912.15;;;-0.30;99.90;;;;;;4983807;28;20086;-82
2024/01/19 03:22:18;;;;;;;938.97;857.65;;;-0.70;99.90;;;;;;5000103;28;20483;-83
2024/01/19 03:24:44;;;;;;;1075.22;970.22;;;-0.20;99.90;;;;;;5051807;28;20046;-83
2024/01/19 03:27:10;;;;;;;988.42;899.65;;;-1.50;99.90;;;;;;5000211;28;20058;-84
2024/01/19 03:29:36;;;;;;;1021.03;923.30;;;-0.70;99.90;;;;;;5036415;28;20046;-84
2024/01/19 03:32:01;;;;;;;986.15;896.03;;;-1.50;99.90;;;;;;5019285;28;20378;-83
2024/01/19 03:34:28;;;;;;;1073.78;964.40;;;-1.50;99.90;;;;;;4990112;28;20130;-84
2024/01/19 03:36:53;;;;;;;1020.13;923.25;;;-1.60;99.90;;;;;;5000963;28;20058;-83
2024/01/19 03:39:19;;;;;;;1065.18;959.00;;;-0.60;99.90;;;;;;5017720;28;20047;-84
2024/01/19 03:41:45;;;;;;;1019.85;923.30;;;-0.10;99.90;;;;;;5033801;28;20339;-84
2024/01/19 03:44:11;;;;;;;1122.88;999.90;;;-0.10;99.90;;;;;;5035121;28;20050;-84
2024/01/19 03:46:37;;;;;;;1213.82;999.90;;;0.10;99.90;;;;;;5001688;28;20041;-84
2024/01/19 03:49:02;;;;;;;1166.88;999.90;;;-1.10;99.90;;;;;;4985529;28;20050;-84
2024/01/19 03:51:28;;;;;;;1087.82;978.80;;;-1.00;99.90;;;;;;5016353;28;20057;-84
2024/01/19 03:53:54;;;;;;;1109.60;991.72;;;0.00;99.90;;;;;;4982289;28;20145;-83
2024/01/19 03:56:19;;;;;;;1079.78;974.50;;;0.10;99.90;;;;;;4978306;28;20046;-83
2024/01/19 03:58:45;;;;;;;1016.65;922.17;;;-0.10;99.90;;;;;;5035985;28;20029;-83
2024/01/19 04:01:11;;;;;;;1086.72;974.53;;;-0.70;99.90;;;;;;5006401;28;20434;-84
2024/01/19 04:03:37;;;;;;;1016.08;923.00;;;-0.30;99.90;;;;;;4987690;28;20133;-84
2024/01/19 04:06:02;;;;;;;1109.38;993.53;;;0.10;99.90;;;;;;5020214;28;20042;-84
2024/01/19 04:08:28;;;;;;;1099.00;988.10;;;-1.00;99.90;;;;;;4985371;28;20165;-84
2024/01/19 04:10:54;;;;;;;1104.38;987.40;;;0.00;99.90;;;;;;4970737;28;20051;-84
2024/01/19 04:13:20;;;;;;;1074.50;967.72;;;0.20;99.90;;;;;;5004549;28;20038;-84
2024/01/19 04:15:46;;;;;;;1046.47;947.38;;;-0.50;99.90;;;;;;5021500;28;20153;-83
2024/01/19 04:18:11;;;;;;;1058.10;957.13;;;0.40;99.90;;;;;;5020600;28;20106;-84
2024/01/19 04:20:37;;;;;;;1054.53;950.75;;;0.40;99.90;;;;;;5005957;28;20049;-84
2024/01/19 04:23:03;;;;;;;1048.13;947.42;;;0.40;99.90;;;;;;5020723;28;20080;-84
2024/01/19 04:25:29;;;;;;;1014.33;919.45;;;-0.40;99.90;;;;;;5021330;28;20082;-83
2024/01/19 04:27:55;;;;;;;1056.80;953.08;;;0.70;99.90;;;;;;5038608;28;20130;-83
2024/01/19 04:30:21;;;;;;;1000.85;910.28;;;-0.30;99.90;;;;;;5004419;28;20038;-83
2024/01/19 04:32:47;;;;;;;992.20;903.08;;;-0.90;99.90;;;;;;5006028;28;20506;-84
2024/01/19 04:35:13;;;;;;;978.17;892.70;;;0.50;99.90;;;;;;5001557;28;20498;-83
2024/01/19 04:37:38;;;;;;;978.08;891.92;;;-0.90;99.90;;;;;;5004649;28;20502;-83
2024/01/19 04:40:04;;;;;;;1088.88;979.28;;;0.40;99.90;;;;;;5036932;28;20057;-83
2024/01/19 04:42:30;;;;;;;950.55;868.03;;;-0.90;99.90;;;;;;4988473;28;20481;-83
2024/01/19 04:44:56;;;;;;;934.53;853.22;;;0.50;99.90;;;;;;5004010;28;20054;-83
2024/01/19 04:47:22;;;;;;;943.58;860.95;;;-0.10;99.90;;;;;;5000761;28;20030;-84
2024/01/19 04:49:48;;;;;;;967.08;881.25;;;-0.10;99.90;;;;;;4980298;28;20146;-83
2024/01/19 04:52:14;;;;;;;948.00;865.10;;;-0.70;99.90;;;;;;5003975;28;20083;-83
2024/01/19 04:54:39;;;;;;;902.55;827.25;;;0.00;99.90;;;;;;5037886;28;20042;-84
2024/01/19 04:57:05;;;;;;;845.08;777.85;;;-0.10;99.90;;;;;;4992346;28;20519;-83
2024/01/19 04:59:31;;;;;;;909.20;832.30;;;0.50;99.90;;;;;;4994237;28;20137;-84
2024/01/19 05:01:57;;;;;;;855.58;786.33;;;0.20;99.90;;;;;;4987190;28;20042;-84
2024/01/19 05:04:23;;;;;;;868.10;797.38;;;0.20;99.90;;;;;;5013302;28;20038;-83
2024/01/19 05:06:48;;;;;;;922.90;845.08;;;0.30;99.90;;;;;;5018770;28;20421;-83
2024/01/19 05:09:14;;;;;;;888.22;814.75;;;0.00;99.90;;;;;;4996916;28;20042;-84
2024/01/19 05:11:40;;;;;;;880.53;808.10;;;-0.60;99.90;;;;;;4993116;28;20045;-84
2024/01/19 05:14:06;;;;;;;831.60;765.60;;;0.00;99.90;;;;;;4985978;28;20046;-83
2024/01/19 05:16:33;;;;;;;893.88;817.08;;;-0.60;99.90;;;;;;4985297;28;20481;-84
2024/01/19 05:18:59;;;;;;;923.75;843.92;;;-0.40;99.90;;;;;;4985709;28;20049;-84
2024/01/19 05:21:26;;;;;;;844.40;776.97;;;0.30;99.90;;;;;;4999014;28;20068;-84
2024/01/19 05:23:52;;;;;;;859.85;790.58;;;-1.10;99.90;;;;;;4992722;28;20050;-84
2024/01/19 05:26:18;;;;;;;985.47;897.22;;;0.30;99.90;;;;;;5017465;28;20058;-83
2024/01/19 05:28:44;;;;;;;908.38;831.67;;;-0.60;99.90;;;;;;4996335;28;20481;-84
2024/01/19 05:31:09;;;;;;;973.78;885.20;;;-0.60;99.90;;;;;;4976424;28;20046;-83
2024/01/19 05:33:35;;;;;;;1097.40;974.22;;;0.60;99.90;;;;;;4974920;28;20093;-83
2024/01/19 05:36:01;;;;;;;982.90;894.95;;;-0.60;99.90;;;;;;4992801;28;20091;-84
2024/01/19 05:38:27;;;;;;;1050.93;949.83;;;-0.30;99.90;;;;;;5003509;28;20504;-83
2024/01/19 05:40:53;;;;;;;974.40;885.35;;;0.30;99.90;;;;;;4976150;28;20069;-84
2024/01/19 05:43:18;;;;;;;928.47;850.63;;;-0.60;99.90;;;;;;5020853;28;20056;-84
2024/01/19 05:45:45;;;;;;;891.35;816.78;;;-0.20;99.90;;;;;;5017617;28;20128;-83
2024/01/19 05:48:10;;;;;;;856.15;786.78;;;0.30;99.90;;;;;;4989904;28;20046;-84
2024/01/19 05:50:36;;;;;;;896.25;821.00;;;0.10;99.90;;;;;;5000075;28;20054;-84
2024/01/19 05:53:02;;;;;;;834.05;768.28;;;0.00;99.90;;;;;;4987077;28;20046;-84
2024/01/19 05:55:28;;;;;;;830.95;764.92;;;-1.00;99.90;;;;;;4986670;28;20080;-84
2024/01/19 05:57:54;;;;;;;743.53;686.40;;;0.20;99.90;;;;;;4988847;28;20085;-84
2024/01/19 06:00:19;;;;;;;791.05;730.50;;;0.10;99.90;;;;;;5020786;28;20413;-84
2024/01/19 06:02:45;;;;;;;818.08;753.22;;;-1.30;99.90;;;;;;5003625;28;20239;-84
2024/01/19 06:05:11;;;;;;;824.13;759.33;;;-0.20;99.90;;;;;;5019276;28;20053;-84
2024/01/19 06:07:37;;;;;;;848.67;780.20;;;-1.40;99.90;;;;;;4991147;28;20050;-84
2024/01/19 06:10:03;;;;;;;787.03;725.13;;;-0.30;99.90;;;;;;4974431;28;20450;-84
2024/01/19 06:12:29;;;;;;;916.03;836.15;;;-1.50;99.90;;;;;;5002417;28;20107;-84
2024/01/19 06:14:55;;;;;;;864.10;793.92;;;-0.70;99.90;;;;;;5018802;28;20042;-84
2024/01/19 06:17:20;;;;;;;982.55;892.42;;;-1.40;99.90;;;;;;5001689;28;20712;-84
2024/01/19 06:19:46;;;;;;;974.95;886.33;;;-0.10;99.90;;;;;;5002792;28;20477;-84
2024/01/19 06:22:12;;;;;;;1004.33;910.20;;;-1.30;99.90;;;;;;5001277;28;20057;-84
2024/01/19 06:24:38;;;;;;;1038.15;936.88;;;-1.10;99.90;;;;;;5034245;28;20148;-85
2024/01/19 06:27:04;;;;;;;931.67;850.83;;;0.00;99.90;;;;;;5033255;28;20103;-84
2024/01/19 06:29:29;;;;;;;965.50;880.08;;;-1.10;99.90;;;;;;4983157;28;20170;-84
2024/01/19 06:31:55;;;;;;;948.00;863.92;;;-1.20;99.90;;;;;;5013634;28;20490;-84
2024/01/19 06:34:21;;;;;;;922.47;843.22;;;-0.80;99.90;;;;;;5000339;28;20046;-84
2024/01/19 06:36:47;;;;;;;975.83;887.03;;;-0.50;99.90;;;;;;5029824;28;20046;-84
2024/01/19 06:39:13;;;;;;;969.70;881.55;;;-1.30;99.90;;;;;;5015554;28;20110;-84
2024/01/19 06:41:43;;;;;;;887.35;813.28;;;-1.40;99.90;;;;;;4982781;28;20137;-84
2024/01/19 06:44:11;;;;;;;866.08;795.30;;;-0.90;99.90;;;;;;4997482;28;20058;-84
2024/01/19 06:46:37;;;;;;;905.88;831.00;;;-1.60;99.90;;;;;;4998808;28;20118;-84
2024/01/19 06:49:02;;;;;;;980.45;888.85;;;-0.40;99.90;;;;;;4970974;28;20429;-85
2024/01/19 06:51:28;;;;;;;935.33;851.25;;;-0.50;99.90;;;;;;5016547;28;20251;-84
2024/01/19 06:53:56;;;;;;;959.22;873.58;;;-0.90;99.90;;;;;;4980459;28;20074;-86
2024/01/19 06:56:22;;;;;;;969.20;880.97;;;-0.90;99.90;;;;;;4993300;28;20258;-85
2024/01/19 06:58:48;;;;;;;1021.88;921.53;;;-1.40;99.90;;;;;;5015724;28;20077;-85
2024/01/19 07:01:14;;;;;;;853.30;784.90;;;-0.70;99.90;;;;;;5003642;28;20066;-85
2024/01/19 07:03:40;;;;;;;943.42;858.67;;;-0.80;99.90;;;;;;4998156;28;20456;-85
2024/01/19 07:06:05;;;;;;;833.88;765.90;;;-1.30;99.90;;;;;;4978119;28;20095;-85
2024/01/19 07:08:31;;;;;;;1006.03;907.10;;;-2.30;99.90;;;;;;5016326;28;20627;-85
2024/01/19 07:10:57;;;;;;;877.80;801.50;;;-2.50;99.90;;;;;;5002017;28;20046;-85
2024/01/19 07:13:23;;;;;;;835.13;766.75;;;-1.00;99.90;;;;;;5003762;28;20133;-85
2024/01/19 07:15:49;;;;;;;1007.97;911.92;;;-2.60;99.90;;;;;;5010485;28;20215;-86
2024/01/19 07:18:14;;;;;;;1142.40;996.63;;;-2.60;99.90;;;;;;5000910;28;20042;-86
2024/01/19 07:20:41;;;;;;;1213.93;998.78;;;-1.50;99.90;;;;;;4968872;28;20061;-86
2024/01/19 07:23:07;;;;;;;1204.07;998.05;;;-2.50;99.90;;;;;;5018402;28;20174;-80
2024/01/19 07:25:33;;;;;;;1339.00;999.90;;;-1.30;99.90;;;;;;4977267;28;20881;-81
2024/01/19 07:27:59;;;;;;;1284.50;999.90;;;-1.20;99.90;;;;;;5031278;28;20061;-86
2024/01/19 07:30:24;;;;;;;1359.32;999.90;;;-2.00;99.90;;;;;;5019371;28;20038;-86
2024/01/19 07:32:50;;;;;;;1104.63;986.75;;;-0.70;99.90;;;;;;5000310;28;20046;-87
2024/01/19 07:35:17;;;;;;;1288.28;999.90;;;-0.90;99.90;;;;;;5008914;28;20141;-86
2024/01/19 07:37:43;;;;;;;1292.05;999.90;;;-1.10;99.90;;;;;;5020958;28;20130;-86
2024/01/19 07:40:09;;;;;;;1345.00;999.90;;;-0.40;99.90;;;;;;5015598;28;20111;-86
2024/01/19 07:42:35;;;;;;;1124.28;997.80;;;-1.70;99.90;;;;;;4988208;28;20034;-86
2024/01/19 07:45:00;;;;;;;1108.43;989.95;;;-0.80;99.90;;;;;;5019360;28;20489;-86
2024/01/19 07:47:26;;;;;;;1255.78;999.90;;;-1.40;99.90;;;;;;4976701;28;20050;-86
2024/01/19 07:49:52;;;;;;;1082.65;972.63;;;0.00;99.90;;;;;;5003579;28;20368;-85
2024/01/19 07:52:18;;;;;;;1088.75;974.63;;;-0.40;99.90;;;;;;5008266;28;20138;-84
2024/01/19 07:54:44;;;;;;;1091.30;980.38;;;-0.20;99.90;;;;;;5034708;28;20548;-85
2024/01/19 07:57:10;;;;;;;1082.55;971.28;;;-1.40;99.90;;;;;;5002961;28;20133;-85
2024/01/19 07:59:36;;;;;;;1008.63;914.28;;;-1.30;99.90;;;;;;4985416;28;20042;-85
2024/01/19 08:02:03;;;;;;;1096.88;980.75;;;-1.30;99.90;;;;;;4976048;28;20062;-84
2024/01/19 08:04:29;;;;;;;1015.08;920.90;;;-0.40;99.90;;;;;;4980188;28;20046;-86
2024/01/19 08:06:55;;;;;;;1040.63;939.17;;;0.30;99.90;;;;;;4968221;28;20061;-84
2024/01/19 08:09:20;;;;;;;1027.43;931.17;;;0.10;99.90;;;;;;4988710;28;20108;-85
2024/01/19 08:11:46;;;;;;;994.80;903.05;;;0.00;99.90;;;;;;5025571;28;20046;-85
2024/01/19 08:14:12;;;;;;;1016.67;922.70;;;-0.90;99.90;;;;;;4974552;28;20046;-85
2024/01/19 08:16:41;;;;;;;1017.40;922.72;;;0.20;99.90;;;;;;4984831;28;20050;-86
2024/01/19 08:19:07;;;;;;;947.15;865.20;;;-0.20;99.90;;;;;;4993628;28;20125;-84
2024/01/19 08:21:33;;;;;;;941.78;860.03;;;-0.40;99.90;;;;;;4967581;28;20904;-84
2024/01/19 08:23:58;;;;;;;899.22;823.97;;;-0.10;99.90;;;;;;4982842;28;20598;-85
2024/01/19 08:26:24;;;;;;;979.92;888.33;;;-0.90;99.90;;;;;;4983245;28;20054;-85
2024/01/19 08:28:50;;;;;;;1056.15;948.63;;;-1.00;99.90;;;;;;5001092;28;20061;-85
2024/01/19 08:31:16;;;;;;;884.35;811.55;;;-0.90;99.90;;;;;;5001518;28;20044;-84
2024/01/19 08:33:42;;;;;;;949.10;866.33;;;0.50;99.90;;;;;;5007924;28;20518;-85
2024/01/19 08:36:08;;;;;;;928.75;848.45;;;-0.90;99.90;;;;;;4988104;28;20039;-86
2024/01/19 08:38:33;;;;;;;936.10;855.65;;;-0.90;99.90;;;;;;5000029;28;20039;-85
2024/01/19 08:40:59;;;;;;;901.13;824.63;;;-0.50;99.90;;;;;;5000899;28;20057;-86
2024/01/19 08:43:25;;;;;;;889.10;816.30;;;-0.90;99.90;;;;;;5000134;28;20053;-87
2024/01/19 08:45:51;;;;;;;849.40;781.30;;;0.00;99.90;;;;;;5002093;28;20053;-87
2024/01/19 08:48:17;;;;;;;883.05;810.28;;;0.40;99.90;;;;;;4992188;28;20057;-86
2024/01/19 08:50:44;;;;;;;839.75;772.35;;;0.20;99.90;;;;;;5000812;28;20050;-86
2024/01/19 08:53:09;;;;;;;850.35;782.47;;;-0.80;99.90;;;;;;5002149;28;20417;-85
2024/01/19 08:55:35;;;;;;;870.28;798.60;;;-0.20;99.90;;;;;;4991539;28;20045;-86
2024/01/19 08:58:01;;;;;;;825.72;760.40;;;-0.80;99.90;;;;;;4994311;28;20133;-86
2024/01/19 09:00:27;;;;;;;825.97;760.80;;;-0.80;99.90;;;;;;5002770;28;20442;-86
2024/01/19 09:02:52;;;;;;;824.05;758.22;;;0.50;99.90;;;;;;4987295;28;20486;-85
2024/01/19 09:05:18;;;;;;;819.25;754.85;;;-0.50;99.90;;;;;;5002283;28;20485;-88
2024/01/19 09:07:44;;;;;;;855.80;787.20;;;0.20;99.90;;;;;;5014392;28;20478;-88
2024/01/19 09:10:09;;;;;;;860.38;790.65;;;0.40;99.90;;;;;;5020592;28;20469;-88
2024/01/19 09:12:35;;;;;;;802.40;739.60;;;-0.10;99.90;;;;;;5021472;28;20087;-87
2024/01/19 09:15:01;;;;;;;827.42;761.50;;;0.80;99.90;;;;;;4975880;28;20098;-88
2024/01/19 09:17:27;;;;;;;854.97;784.08;;;-0.50;99.90;;;;;;5004139;28;20094;-88
2024/01/19 09:19:52;;;;;;;830.80;763.67;;;-0.50;99.90;;;;;;5021710;28;20099;-87
2024/01/19 09:22:18;;;;;;;823.50;758.92;;;0.10;99.90;;;;;;5005180;28;20061;-88
2024/01/19 09:24:44;;;;;;;835.22;769.15;;;-0.40;99.90;;;;;;5015805;28;20042;-86
2024/01/19 09:27:10;;;;;;;795.05;732.25;;;-0.30;99.90;;;;;;4998850;28;20129;-85
2024/01/19 09:29:35;;;;;;;788.75;727.63;;;0.30;99.90;;;;;;5024768;28;20046;-85
2024/01/19 09:32:01;;;;;;;799.13;737.20;;;0.40;99.90;;;;;;5028101;28;20394;-85
2024/01/19 09:34:28;;;;;;;769.70;709.53;;;0.80;99.90;;;;;;4997949;28;20049;-86
2024/01/19 09:36:53;;;;;;;781.45;721.35;;;1.10;99.90;;;;;;5019772;28;20378;-85
2024/01/19 09:39:21;;;;;;;788.90;728.50;;;-0.10;99.90;;;;;;5036908;28;20038;-86
2024/01/19 09:41:49;;;;;;;767.63;708.28;;;0.40;99.90;;;;;;5020891;28;20263;-86
2024/01/19 09:44:18;;;;;;;756.38;698.72;;;0.70;99.90;;;;;;4988682;28;20042;-86
2024/01/19 09:47:15;;;;;;;727.88;672.45;;;0.90;99.90;;;;;;4969863;28;20062;-86
2024/01/19 09:49:42;;;;;;;691.72;639.65;;;0.00;99.90;;;;;;5001513;28;20057;-85
2024/01/19 09:52:27;;;;;;;726.70;671.42;;;0.10;99.90;;;;;;5036596;28;20098;-86
2024/01/19 09:54:54;;;;;;;651.47;602.58;;;0.20;99.90;;;;;;4986836;28;20106;-85
2024/01/19 09:57:20;;;;;;;634.00;587.45;;;1.00;99.90;;;;;;5002391;28;20069;-85
2024/01/19 09:59:46;;;;;;;641.72;594.75;;;0.30;99.90;;;;;;5002561;28;20041;-84
2024/01/19 10:02:13;;;;;;;661.35;612.28;;;1.30;99.90;;;;;;5003940;28;20125;-84
2024/01/19 10:04:39;;;;;;;596.25;553.38;;;0.70;99.90;;;;;;4980004;28;20054;-84
2024/01/19 10:07:06;;;;;;;555.35;516.13;;;1.80;99.90;;;;;;5003147;28;20486;-84
2024/01/19 10:09:33;;;;;;;474.75;442.20;;;1.50;99.90;;;;;;4966426;28;20089;-84
2024/01/19 10:11:59;;;;;;;614.08;568.75;;;1.20;99.90;;;;;;4952514;28;20580;-83
2024/01/19 10:14:26;;;;;;;328.85;307.85;;;1.30;99.90;;;;;;4961522;28;20584;-83
2024/01/19 10:16:51;;;;;;;359.98;337.42;;;0.80;99.90;;;;;;4996113;28;20104;-83
2024/01/19 10:19:21;;;;;;;270.58;253.77;;;0.80;99.90;;;;;;4963398;28;20397;-83
2024/01/19 10:21:47;;;;;;;200.43;188.48;;;0.90;99.90;;;;;;5003250;28;20106;-83
2024/01/19 10:24:15;;;;;;;297.75;276.65;;;1.00;99.90;;;;;;5035966;28;20084;-83
2024/01/19 10:26:42;;;;;;;120.68;112.43;;;1.10;99.90;;;;;;4986337;28;20087;-83
2024/01/19 10:29:14;;;;;;;141.82;132.63;;;1.10;99.90;;;;;;5036018;28;20080;-84
2024/01/19 10:31:42;;;;;;;192.82;180.93;;;1.40;99.90;;;;;;4987247;28;20061;-85
2024/01/19 10:34:19;;;;;;;174.00;162.35;;;2.20;99.90;;;;;;4973392;28;20042;-84
2024/01/19 10:36:46;;;;;;;178.77;167.13;;;1.20;99.90;;;;;;5014152;28;20476;-84
2024/01/19 10:39:17;;;;;;;155.40;144.68;;;1.50;99.90;;;;;;4984065;28;20037;-85
2024/01/19 10:41:43;;;;;;;143.68;134.35;;;1.20;99.90;;;;;;4985741;28;20050;-85
2024/01/19 10:44:11;;;;;;;224.60;210.10;;;1.70;99.90;;;;;;5019371;28;20063;-86
2024/01/19 10:46:37;;;;;;;150.68;140.38;;;1.30;99.90;;;;;;5002259;28;20125;-87
2024/01/19 10:49:04;;;;;;;258.45;240.60;;;1.40;99.90;;;;;;4993777;28;20517;-88
2024/01/19 10:51:30;;;;;;;101.00;94.28;;;1.50;99.90;;;;;;4976370;28;20058;-87
2024/01/19 10:54:02;;;;;;;148.13;138.35;;;1.50;99.90;;;;;;4988314;28;20045;-85
2024/01/19 10:56:28;;;;;;;126.50;117.95;;;2.80;99.90;;;;;;5002289;28;20091;-87
2024/01/19 10:59:08;;;;;;;93.78;87.22;;;1.60;99.90;;;;;;4998152;28;20047;-87
2024/01/19 11:01:34;;;;;;;139.63;130.73;;;1.70;99.90;;;;;;4968509;28;20146;-87
2024/01/19 11:04:01;;;;;;;126.68;118.05;;;1.70;99.90;;;;;;5014572;28;20540;-87
2024/01/19 11:06:27;;;;;;;137.02;128.00;;;1.80;99.90;;;;;;4991579;28;20532;-88
2024/01/19 11:08:53;;;;;;;131.70;122.70;;;1.90;99.90;;;;;;5008159;28;20050;-89
2024/01/19 11:11:21;;;;;;;102.15;94.90;;;1.90;99.90;;;;;;4999348;28;20505;-86
2024/01/19 11:13:51;;;;;;;131.70;123.03;;;1.90;99.90;;;;;;4992249;28;20053;-86
2024/01/19 11:16:25;;;;;;;166.75;154.68;;;2.60;99.90;;;;;;4986179;28;20501;-84
2024/01/19 11:18:52;;;;;;;135.07;126.10;;;2.00;99.90;;;;;;4976841;28;20404;-87
2024/01/19 11:21:19;;;;;;;144.43;134.82;;;2.10;99.90;;;;;;4969079;28;20042;-87
2024/01/19 11:23:46;;;;;;;110.43;102.22;;;2.10;99.90;;;;;;4971132;28;20073;-86
2024/01/19 11:26:21;;;;;;;64.03;59.42;;;2.20;99.90;;;;;;4964649;28;20494;-85
2024/01/19 11:29:13;;;;;;;117.82;109.90;;;2.60;99.90;;;;;;4968988;28;20428;-86
2024/01/19 11:31:40;;;;;;;115.22;107.10;;;2.30;99.90;;;;;;4961879;28;20043;-86
2024/01/19 11:34:06;;;;;;;100.03;93.15;;;2.40;99.90;;;;;;4964043;28;20406;-86
2024/01/19 11:36:41;;;;;;;108.10;100.63;;;2.40;99.90;;;;;;5001999;28;20089;-86
2024/01/19 11:39:08;;;;;;;97.25;89.93;;;2.50;99.90;;;;;;4978625;28;20049;-86
2024/01/19 11:41:35;;;;;;;104.20;96.45;;;2.60;99.90;;;;;;4967008;28;20058;-86
2024/01/19 11:44:03;;;;;;;103.85;96.63;;;3.40;99.90;;;;;;4976922;28;20037;-87
2024/01/19 11:46:44;;;;;;;84.82;78.55;;;2.80;99.90;;;;;;4959038;28;20054;-85
2024/01/19 11:49:30;;;;;;;62.30;57.63;;;2.80;99.90;;;;;;4987799;28;20549;-84
2024/01/19 11:51:56;;;;;;;50.13;46.35;;;2.90;99.90;;;;;;4965100;28;20728;-85
2024/01/19 11:54:26;;;;;;;45.80;42.33;;;2.90;99.90;;;;;;4965211;28;20056;-85
2024/01/19 11:56:52;;;;;;;63.05;58.55;;;2.90;99.90;;;;;;4996261;28;20069;-84
2024/01/19 11:59:21;;;;;;;69.20;64.05;;;2.90;99.90;;;;;;4962035;28;20097;-86
2024/01/19 12:01:47;;;;;;;76.82;70.72;;;3.00;99.90;;;;;;4978131;28;20053;-86
2024/01/19 12:04:15;;;;;;;79.15;73.80;;;3.00;99.90;;;;;;4998422;28;20106;-86
2024/01/19 12:06:41;;;;;;;89.95;84.00;;;3.10;99.90;;;;;;4992064;28;20547;-86